createdAt,value
2018-06-30T00:00:52.980Z,11.27
2018-06-30T00:03:20.744Z,16.55
2018-06-30T00:05:48.193Z,13.77
2018-06-30T00:08:16.272Z,14.48
2018-06-30T00:10:43.764Z,7.93
2018-06-30T00:13:11.203Z,13.10
2018-06-30T00:15:38.842Z,10.43
2018-06-30T00:18:06.361Z,13.75
2018-06-30T00:20:33.828Z,8.32
2018-06-30T00:23:01.316Z,7.95
2018-06-30T00:25:28.871Z,10.85
2018-06-30T00:27:56.322Z,9.35
2018-06-30T00:30:23.737Z,13.95
2018-06-30T00:32:51.131Z,8.05
2018-06-30T00:35:18.752Z,11.90
2018-06-30T00:37:46.396Z,11.63
2018-06-30T00:40:13.844Z,7.12
2018-06-30T00:42:41.238Z,6.72
2018-06-30T00:45:08.711Z,12.48
2018-06-30T00:47:36.163Z,9.68
2018-06-30T00:50:03.646Z,8.95
2018-06-30T00:52:31.042Z,12.20
2018-06-30T00:54:58.567Z,7.03
2018-06-30T00:57:26.061Z,7.68
2018-06-30T00:59:53.497Z,8.40
2018-06-30T01:02:20.901Z,11.15
2018-06-30T01:04:48.312Z,8.05
2018-06-30T01:07:15.743Z,6.80
2018-06-30T01:09:43.224Z,7.82
2018-06-30T01:12:10.728Z,9.23
2018-06-30T01:14:38.180Z,7.60
2018-06-30T01:17:05.577Z,6.50
2018-06-30T01:19:33.033Z,10.38
2018-06-30T01:22:00.545Z,9.90
2018-06-30T01:24:27.987Z,9.10
2018-06-30T01:26:55.449Z,8.95
2018-06-30T01:29:22.919Z,8.07
2018-06-30T01:31:50.376Z,8.88
2018-06-30T01:34:17.816Z,8.55
2018-06-30T01:36:45.701Z,7.93
2018-06-30T01:39:13.142Z,9.40
2018-06-30T01:41:40.733Z,10.07
2018-06-30T01:44:08.174Z,8.77
2018-06-30T01:46:35.679Z,7.90
2018-06-30T01:49:03.166Z,7.87
2018-06-30T01:51:30.614Z,6.87
2018-06-30T01:53:58.071Z,12.20
2018-06-30T01:56:25.552Z,18.00
2018-06-30T01:58:53.031Z,9.45
2018-06-30T02:01:20.554Z,11.15
2018-06-30T02:03:48.109Z,9.38
2018-06-30T02:06:15.513Z,7.68
2018-06-30T02:08:43.001Z,11.73
2018-06-30T02:11:10.921Z,8.20
2018-06-30T02:13:38.383Z,6.40
2018-06-30T02:16:05.872Z,8.23
2018-06-30T02:18:33.359Z,8.68
2018-06-30T02:21:00.804Z,12.27
2018-06-30T02:23:28.230Z,14.10
2018-06-30T02:25:55.713Z,10.43
2018-06-30T02:28:23.236Z,7.97
2018-06-30T02:30:50.722Z,8.88
2018-06-30T02:33:18.161Z,7.05
2018-06-30T02:35:45.648Z,8.23
2018-06-30T02:38:13.077Z,7.28
2018-06-30T02:40:40.522Z,7.03
2018-06-30T02:43:07.913Z,7.53
2018-06-30T02:45:35.421Z,9.10
2018-06-30T02:48:02.859Z,7.00
2018-06-30T02:50:30.581Z,13.77
2018-06-30T02:52:58.401Z,8.50
2018-06-30T02:55:25.873Z,14.85
2018-06-30T02:57:53.305Z,11.52
2018-06-30T03:00:20.854Z,13.93
2018-06-30T03:02:48.383Z,10.43
2018-06-30T03:05:15.870Z,10.30
2018-06-30T03:07:43.359Z,11.57
2018-06-30T03:10:10.758Z,12.15
2018-06-30T03:12:38.219Z,10.18
2018-06-30T03:17:39.584Z,12.75
2018-06-30T03:20:07.023Z,15.30
2018-06-30T03:22:34.545Z,13.60
2018-06-30T03:25:01.973Z,9.13
2018-06-30T03:27:29.389Z,13.95
2018-06-30T03:29:56.856Z,9.63
2018-06-30T03:32:24.329Z,9.20
2018-06-30T03:34:51.796Z,10.35
2018-06-30T03:37:19.251Z,10.07
2018-06-30T03:39:46.952Z,13.90
2018-06-30T03:42:14.428Z,8.85
2018-06-30T03:44:41.830Z,15.18
2018-06-30T03:47:09.256Z,12.02
2018-06-30T03:49:37.442Z,7.68
2018-06-30T03:52:04.875Z,8.27
2018-06-30T03:54:32.488Z,7.05
2018-06-30T03:56:59.964Z,9.35
2018-06-30T03:59:27.404Z,11.12
2018-06-30T04:01:54.844Z,7.68
2018-06-30T04:04:22.394Z,8.05
2018-06-30T04:06:49.977Z,9.13
2018-06-30T04:09:17.448Z,13.10
2018-06-30T04:11:44.859Z,7.80
2018-06-30T04:14:12.356Z,9.27
2018-06-30T04:16:39.830Z,7.85
2018-06-30T04:19:07.287Z,9.07
2018-06-30T04:21:34.762Z,9.27
2018-06-30T04:24:02.213Z,18.37
2018-06-30T04:26:29.627Z,16.52
2018-06-30T04:28:57.103Z,10.55
2018-06-30T04:31:24.549Z,8.07
2018-06-30T04:33:52.081Z,17.85
2018-06-30T04:36:19.809Z,16.15
2018-06-30T04:38:47.258Z,11.40
2018-06-30T04:41:14.682Z,7.65
2018-06-30T04:43:42.092Z,8.23
2018-06-30T04:46:09.655Z,8.63
2018-06-30T04:48:37.089Z,8.32
2018-06-30T04:51:04.629Z,10.45
2018-06-30T04:53:32.170Z,10.35
2018-06-30T04:55:59.580Z,7.72
2018-06-30T04:58:27.506Z,8.45
2018-06-30T05:00:54.993Z,7.40
2018-06-30T05:03:22.472Z,9.70
2018-06-30T05:05:49.962Z,9.77
2018-06-30T05:08:17.462Z,9.13
2018-06-30T05:10:44.911Z,8.65
2018-06-30T05:13:12.324Z,9.10
2018-06-30T05:15:39.742Z,9.65
2018-06-30T05:18:07.218Z,16.50
2018-06-30T05:20:34.678Z,8.93
2018-06-30T05:23:02.141Z,7.68
2018-06-30T05:25:29.624Z,8.60
2018-06-30T05:27:57.230Z,11.45
2018-06-30T05:30:25.399Z,8.70
2018-06-30T05:32:53.007Z,9.27
2018-06-30T05:35:20.620Z,10.25
2018-06-30T05:37:48.069Z,6.72
2018-06-30T05:40:15.534Z,10.32
2018-06-30T05:42:43.220Z,9.27
2018-06-30T05:45:10.646Z,8.27
2018-06-30T05:47:38.210Z,8.50
2018-06-30T05:50:05.668Z,11.07
2018-06-30T05:52:33.131Z,10.23
2018-06-30T05:55:00.659Z,10.25
2018-06-30T05:57:28.173Z,18.10
2018-06-30T05:59:55.583Z,14.60
2018-06-30T06:02:23.086Z,8.57
2018-06-30T06:04:50.517Z,10.13
2018-06-30T06:07:18.043Z,8.68
2018-06-30T06:09:45.607Z,8.85
2018-06-30T06:12:12.972Z,9.82
2018-06-30T06:14:41.027Z,8.85
2018-06-30T06:17:08.510Z,9.27
2018-06-30T06:19:35.932Z,15.50
2018-06-30T06:22:03.370Z,10.93
2018-06-30T06:24:30.829Z,8.80
2018-06-30T06:26:58.263Z,7.87
2018-06-30T06:29:25.762Z,7.22
2018-06-30T06:31:53.199Z,11.02
2018-06-30T06:34:20.773Z,11.12
2018-06-30T06:36:48.293Z,11.75
2018-06-30T06:39:19.632Z,10.77
2018-06-30T06:41:47.172Z,8.57
2018-06-30T06:44:14.545Z,9.13
2018-06-30T06:46:42.108Z,9.98
2018-06-30T06:49:09.586Z,10.00
2018-06-30T06:51:37.375Z,11.00
2018-06-30T06:54:04.839Z,14.15
2018-06-30T06:56:32.377Z,10.75
2018-06-30T06:58:59.871Z,11.02
2018-06-30T07:01:27.364Z,14.18
2018-06-30T07:03:54.821Z,11.00
2018-06-30T07:06:22.231Z,8.25
2018-06-30T07:08:49.652Z,9.10
2018-06-30T07:11:17.131Z,10.77
2018-06-30T07:13:44.713Z,9.27
2018-06-30T07:16:12.099Z,9.75
2018-06-30T07:18:39.532Z,9.25
2018-06-30T07:21:06.995Z,13.32
2018-06-30T07:23:34.475Z,10.27
2018-06-30T07:26:01.987Z,12.23
2018-06-30T07:28:29.473Z,9.77
2018-06-30T07:30:56.938Z,10.13
2018-06-30T07:33:24.380Z,10.30
2018-06-30T07:35:52.076Z,12.95
2018-06-30T07:38:19.589Z,18.55
2018-06-30T07:40:47.014Z,12.70
2018-06-30T07:43:14.481Z,15.40
2018-06-30T07:45:41.943Z,13.82
2018-06-30T07:48:09.444Z,15.52
2018-06-30T07:50:36.897Z,12.50
2018-06-30T07:53:04.394Z,27.58
2018-06-30T07:55:31.815Z,11.38
2018-06-30T07:57:59.291Z,25.58
2018-06-30T08:00:26.827Z,15.05
2018-06-30T08:02:54.301Z,15.73
2018-06-30T08:05:21.826Z,18.12
2018-06-30T08:07:49.316Z,13.50
2018-06-30T08:10:16.991Z,20.15
2018-06-30T08:12:44.519Z,16.83
2018-06-30T08:15:11.971Z,14.15
2018-06-30T08:17:39.604Z,16.60
2018-06-30T08:20:07.032Z,15.80
2018-06-30T08:22:34.486Z,15.18
2018-06-30T08:25:02.191Z,14.80
2018-06-30T08:27:29.643Z,15.50
2018-06-30T08:29:57.113Z,11.98
2018-06-30T08:32:24.671Z,14.50
2018-06-30T08:34:52.164Z,15.30
2018-06-30T08:37:19.666Z,10.68
2018-06-30T08:39:47.360Z,18.48
2018-06-30T08:42:14.839Z,12.07
2018-06-30T08:44:42.366Z,14.35
2018-06-30T08:47:10.620Z,13.13
2018-06-30T08:49:38.141Z,12.75
2018-06-30T08:52:05.660Z,14.63
2018-06-30T08:54:33.149Z,19.05
2018-06-30T08:57:00.607Z,15.90
2018-06-30T08:59:27.989Z,15.88
2018-06-30T09:01:55.526Z,13.73
2018-06-30T09:04:23.068Z,14.02
2018-06-30T09:06:50.558Z,14.65
2018-06-30T09:09:18.023Z,14.80
2018-06-30T09:11:45.504Z,12.13
2018-06-30T09:14:12.980Z,12.52
2018-06-30T09:16:40.475Z,13.43
2018-06-30T09:19:07.954Z,13.55
2018-06-30T09:21:35.451Z,12.77
2018-06-30T09:24:02.884Z,9.85
2018-06-30T09:26:30.342Z,16.52
2018-06-30T09:28:57.760Z,15.07
2018-06-30T09:31:25.254Z,15.52
2018-06-30T09:33:52.804Z,12.05
2018-06-30T09:36:20.275Z,12.20
2018-06-30T09:38:47.878Z,13.13
2018-06-30T09:41:15.390Z,14.43
2018-06-30T09:43:42.869Z,18.25
2018-06-30T09:46:10.404Z,13.95
2018-06-30T09:48:37.912Z,15.15
2018-06-30T09:51:05.443Z,15.23
2018-06-30T09:53:33.039Z,16.27
2018-06-30T09:56:00.454Z,15.43
2018-06-30T09:58:27.918Z,15.05
2018-06-30T10:00:55.445Z,12.57
2018-06-30T10:03:22.910Z,12.20
2018-06-30T10:05:50.426Z,13.52
2018-06-30T10:08:17.895Z,11.93
2018-06-30T10:10:45.445Z,9.50
2018-06-30T10:13:12.890Z,10.85
2018-06-30T10:15:40.367Z,9.80
2018-06-30T10:18:07.870Z,57.10
2018-06-30T10:20:35.534Z,65.85
2018-06-30T10:23:02.937Z,61.30
2018-06-30T10:25:30.408Z,62.22
2018-06-30T10:27:57.922Z,56.35
2018-06-30T10:30:25.430Z,95.00
2018-06-30T10:40:13.957Z,50.85
2018-06-30T10:42:41.405Z,29.67
2018-06-30T10:45:08.966Z,70.05
2018-06-30T10:47:36.477Z,12.27
2018-06-30T10:50:03.977Z,193.18
2018-06-30T10:52:31.539Z,179.48
2018-06-30T10:54:59.002Z,172.90
2018-06-30T10:57:26.503Z,165.25
2018-06-30T10:59:53.977Z,173.95
2018-06-30T11:02:21.486Z,164.40
2018-06-30T11:04:49.089Z,168.60
2018-06-30T11:07:16.569Z,165.65
2018-06-30T11:09:44.005Z,171.80
2018-06-30T11:12:11.526Z,164.15
2018-06-30T11:14:38.967Z,155.12
2018-06-30T11:17:06.544Z,175.32
2018-06-30T11:19:33.996Z,167.35
2018-06-30T11:22:01.547Z,169.35
2018-06-30T11:24:29.014Z,170.65
2018-06-30T11:26:56.484Z,155.70
2018-06-30T11:29:24.042Z,163.30
2018-06-30T11:31:51.555Z,162.25
2018-06-30T11:34:19.053Z,195.85
2018-06-30T11:36:46.532Z,177.48
2018-06-30T11:39:14.011Z,175.27
2018-06-30T11:41:41.462Z,168.25
2018-06-30T11:44:08.927Z,188.20
2018-06-30T11:46:36.440Z,187.10
2018-06-30T11:49:03.911Z,184.35
2018-06-30T11:51:31.403Z,193.62
2018-06-30T11:53:58.897Z,186.73
2018-06-30T11:56:26.378Z,183.73
2018-06-30T11:58:53.844Z,175.82
2018-06-30T12:01:21.317Z,173.48
2018-06-30T12:03:48.783Z,206.30
2018-06-30T12:06:16.236Z,227.05
2018-06-30T12:08:44.194Z,172.93
2018-06-30T12:11:11.693Z,157.30
2018-06-30T12:13:39.154Z,185.12
2018-06-30T12:16:06.643Z,159.02
2018-06-30T12:18:34.116Z,165.35
2018-06-30T12:21:01.628Z,154.95
2018-06-30T12:23:29.091Z,157.75
2018-06-30T12:25:56.602Z,175.70
2018-06-30T12:28:24.139Z,149.70
2018-06-30T12:30:51.638Z,148.38
2018-06-30T12:33:19.231Z,153.70
2018-06-30T12:35:46.756Z,165.77
2018-06-30T12:38:14.174Z,156.10
2018-06-30T12:40:41.687Z,173.20
2018-06-30T12:43:09.185Z,165.40
2018-06-30T12:45:36.715Z,151.60
2018-06-30T12:48:04.185Z,162.60
2018-06-30T12:50:32.539Z,157.55
2018-06-30T12:53:00.013Z,148.20
2018-06-30T12:55:27.504Z,155.05
2018-06-30T12:57:54.953Z,160.88
2018-06-30T13:00:22.521Z,345.50
2018-06-30T13:02:50.061Z,157.52
2018-06-30T13:05:17.551Z,157.35
2018-06-30T13:07:45.028Z,165.93
2018-06-30T13:10:12.597Z,160.23
2018-06-30T13:12:40.146Z,151.93
2018-06-30T13:15:07.584Z,159.52
2018-06-30T13:17:35.041Z,145.95
2018-06-30T13:20:02.518Z,159.82
2018-06-30T13:22:30.137Z,162.07
2018-06-30T13:24:57.592Z,162.15
2018-06-30T13:27:25.426Z,154.65
2018-06-30T13:29:52.976Z,158.57
2018-06-30T13:32:20.548Z,158.60
2018-06-30T13:34:47.987Z,150.62
2018-06-30T13:37:15.641Z,157.00
2018-06-30T13:39:43.095Z,160.55
2018-06-30T13:42:10.567Z,156.23
2018-06-30T13:44:38.061Z,156.02
2018-06-30T13:47:05.585Z,147.30
2018-06-30T13:49:33.106Z,156.73
2018-06-30T13:52:01.140Z,141.65
2018-06-30T13:54:28.647Z,163.80
2018-06-30T13:56:56.110Z,180.45
2018-06-30T13:59:23.561Z,162.57
2018-06-30T14:01:51.092Z,164.45
2018-06-30T14:04:18.595Z,167.75
2018-06-30T14:06:46.090Z,150.45
2018-06-30T14:09:13.542Z,162.40
2018-06-30T14:11:41.049Z,169.25
2018-06-30T14:14:08.509Z,153.23
2018-06-30T14:16:35.970Z,151.27
2018-06-30T14:19:04.309Z,150.77
2018-06-30T14:21:31.812Z,148.75
2018-06-30T14:23:59.291Z,159.35
2018-06-30T14:26:26.738Z,146.43
2018-06-30T14:28:54.168Z,145.20
2018-06-30T14:31:21.755Z,143.93
2018-06-30T14:33:49.239Z,141.25
2018-06-30T14:36:16.713Z,140.12
2018-06-30T14:38:44.179Z,143.37
2018-06-30T14:41:11.760Z,152.32
2018-06-30T14:43:39.305Z,150.25
2018-06-30T14:46:06.826Z,159.18
2018-06-30T14:48:34.322Z,156.43
2018-06-30T14:51:01.820Z,150.00
2018-06-30T14:53:29.276Z,156.50
2018-06-30T14:55:56.773Z,155.02
2018-06-30T14:58:24.216Z,158.35
2018-06-30T15:00:51.743Z,319.17
2018-06-30T15:03:19.225Z,157.70
2018-06-30T15:05:46.667Z,141.00
2018-06-30T15:08:14.090Z,156.75
2018-06-30T15:10:41.528Z,145.02
2018-06-30T15:13:08.992Z,158.98
2018-06-30T15:15:36.455Z,154.07
2018-06-30T15:18:03.925Z,171.40
2018-06-30T15:20:33.047Z,160.50
2018-06-30T15:23:00.505Z,164.32
2018-06-30T15:25:27.940Z,155.48
2018-06-30T15:27:55.432Z,168.02
2018-06-30T15:30:23.049Z,166.12
2018-06-30T15:32:50.519Z,157.57
2018-06-30T15:35:18.304Z,159.93
2018-06-30T15:37:45.781Z,148.77
2018-06-30T15:40:13.347Z,147.60
2018-06-30T15:42:40.906Z,164.77
2018-06-30T15:45:08.307Z,156.23
2018-06-30T15:47:35.753Z,155.40
2018-06-30T15:50:03.253Z,150.45
2018-06-30T15:52:30.785Z,155.05
2018-06-30T15:54:58.252Z,145.43
2018-06-30T15:57:25.875Z,163.65
2018-06-30T15:59:53.385Z,161.15
2018-06-30T16:02:20.889Z,149.15
2018-06-30T16:04:48.444Z,159.65
2018-06-30T16:07:15.899Z,159.23
2018-06-30T16:09:43.423Z,145.50
2018-06-30T16:12:10.854Z,165.70
2018-06-30T16:14:38.373Z,151.80
2018-06-30T16:17:05.860Z,143.70
2018-06-30T16:19:33.317Z,156.10
2018-06-30T16:22:00.791Z,154.98
2018-06-30T16:24:28.303Z,157.73
2018-06-30T16:26:55.845Z,157.65
2018-06-30T16:29:23.398Z,148.15
2018-06-30T16:31:50.852Z,169.25
2018-06-30T16:34:18.401Z,178.18
2018-06-30T16:36:45.891Z,173.57
2018-06-30T16:39:13.489Z,165.73
2018-06-30T16:41:41.043Z,163.37
2018-06-30T16:44:08.631Z,169.70
2018-06-30T16:46:36.060Z,150.15
2018-06-30T16:49:03.644Z,159.07
2018-06-30T16:51:31.076Z,156.25
2018-06-30T16:53:58.506Z,153.87
2018-06-30T16:56:25.955Z,146.98
2018-06-30T16:58:53.711Z,143.15
2018-06-30T17:01:21.139Z,155.57
2018-06-30T17:03:48.624Z,153.95
2018-06-30T17:06:16.136Z,162.95
2018-06-30T17:08:43.540Z,173.90
2018-06-30T17:11:11.092Z,176.55
2018-06-30T17:13:38.590Z,188.18
2018-06-30T17:16:06.093Z,147.57
2018-06-30T17:18:33.581Z,157.95
2018-06-30T17:21:01.031Z,174.85
2018-06-30T17:23:28.488Z,157.07
2018-06-30T17:25:56.109Z,154.32
2018-06-30T17:28:23.560Z,168.48
2018-06-30T17:30:50.981Z,145.52
2018-06-30T17:33:18.442Z,187.55
2018-06-30T17:35:45.981Z,142.40
2018-06-30T17:38:13.583Z,156.00
2018-06-30T17:40:41.086Z,155.07
2018-06-30T17:43:08.742Z,155.27
2018-06-30T17:45:36.184Z,159.25
2018-06-30T17:48:03.675Z,164.15
2018-06-30T17:50:31.174Z,137.40
2018-06-30T17:52:58.694Z,142.45
2018-06-30T17:55:26.160Z,142.15
2018-06-30T17:57:53.644Z,159.87
2018-06-30T18:00:21.102Z,151.00
2018-06-30T18:02:48.563Z,157.37
2018-06-30T18:05:16.031Z,143.95
2018-06-30T18:07:43.629Z,141.80
2018-06-30T18:10:11.093Z,139.25
2018-06-30T18:12:38.573Z,140.70
2018-06-30T18:15:06.161Z,134.30
2018-06-30T18:17:33.586Z,142.98
2018-06-30T18:20:01.064Z,151.70
2018-06-30T18:22:28.623Z,141.75
2018-06-30T18:24:56.517Z,148.70
2018-06-30T18:27:23.982Z,140.62
2018-06-30T18:29:51.466Z,134.35
2018-06-30T18:32:18.963Z,142.35
2018-06-30T18:34:46.393Z,135.25
2018-06-30T18:37:13.950Z,135.02
2018-06-30T18:39:41.465Z,145.65
2018-06-30T18:42:08.973Z,147.25
2018-06-30T18:44:36.489Z,146.60
2018-06-30T18:47:03.968Z,141.27
2018-06-30T18:49:31.482Z,141.52
2018-06-30T18:51:58.961Z,140.93
2018-06-30T18:54:26.624Z,138.52
2018-06-30T18:56:54.095Z,137.50
2018-06-30T18:59:21.621Z,141.10
2018-06-30T19:01:49.188Z,131.68
2018-06-30T19:04:16.607Z,129.82
2018-06-30T19:06:44.113Z,120.57
2018-06-30T19:09:11.565Z,118.22
2018-06-30T19:11:38.991Z,118.85
2018-06-30T19:14:06.568Z,127.45
2018-06-30T19:16:34.040Z,133.30
2018-06-30T19:19:01.503Z,123.68
2018-06-30T19:21:28.976Z,120.22
2018-06-30T19:23:56.423Z,131.40
2018-06-30T19:26:23.887Z,116.28
2018-06-30T19:28:51.421Z,120.18
2018-06-30T19:31:18.979Z,115.10
2018-06-30T19:33:46.583Z,115.70
2018-06-30T19:36:14.084Z,114.18
2018-06-30T19:38:42.731Z,119.03
2018-06-30T19:41:10.235Z,120.22
2018-06-30T19:43:37.676Z,112.80
2018-06-30T19:46:05.151Z,114.65
2018-06-30T19:48:32.596Z,120.03
2018-06-30T19:51:00.028Z,119.18
2018-06-30T19:53:27.549Z,116.07
2018-06-30T19:55:54.999Z,128.50
2018-06-30T19:58:23.409Z,129.90
2018-06-30T20:00:50.859Z,265.00
2018-06-30T20:03:18.433Z,129.90
2018-06-30T20:05:45.892Z,123.45
2018-06-30T20:08:13.334Z,120.25
2018-06-30T20:10:40.971Z,118.20
2018-06-30T20:13:08.465Z,125.75
2018-06-30T20:15:35.959Z,119.53
2018-06-30T20:18:03.504Z,118.05
2018-06-30T20:20:30.990Z,115.47
2018-06-30T20:22:58.446Z,117.60
2018-06-30T20:25:25.925Z,119.18
2018-06-30T20:27:53.431Z,120.93
2018-06-30T20:30:20.916Z,120.82
2018-06-30T20:32:48.604Z,112.00
2018-06-30T20:35:16.135Z,106.43
2018-06-30T20:37:43.648Z,115.00
2018-06-30T20:40:11.117Z,103.53
2018-06-30T20:42:38.577Z,110.93
2018-06-30T20:45:06.275Z,107.07
2018-06-30T20:47:33.840Z,114.53
2018-06-30T20:50:01.353Z,108.37
2018-06-30T20:52:28.876Z,115.43
2018-06-30T20:54:56.305Z,123.78
2018-06-30T20:57:23.772Z,111.40
2018-06-30T20:59:51.268Z,105.05
2018-06-30T21:02:18.884Z,104.45
2018-06-30T21:04:46.315Z,102.87
2018-06-30T21:07:13.932Z,107.47
2018-06-30T21:09:41.418Z,120.00
2018-06-30T21:12:08.894Z,107.28
2018-06-30T21:14:36.445Z,107.75
2018-06-30T21:17:04.035Z,105.30
2018-06-30T21:19:31.495Z,108.35
2018-06-30T21:21:58.968Z,110.53
2018-06-30T21:24:26.528Z,16.02
2018-06-30T21:26:53.992Z,16.05
2018-06-30T21:29:21.522Z,13.88
2018-06-30T21:31:49.005Z,16.77
2018-06-30T21:34:16.462Z,20.10
2018-06-30T21:36:44.011Z,16.50
2018-06-30T21:39:12.402Z,17.12
2018-06-30T21:41:39.947Z,16.12
2018-06-30T21:44:07.394Z,17.58
2018-06-30T21:46:34.834Z,21.58
2018-06-30T21:49:02.329Z,18.05
2018-06-30T21:51:29.754Z,17.20
2018-06-30T21:53:57.288Z,20.88
2018-06-30T21:56:24.745Z,18.67
2018-06-30T21:58:52.198Z,16.52
2018-06-30T22:01:19.667Z,16.17
2018-06-30T22:03:47.253Z,11.00
2018-06-30T22:06:14.639Z,13.05
2018-06-30T22:08:42.101Z,15.88
2018-06-30T22:11:09.615Z,11.23
2018-06-30T22:13:37.941Z,11.80
2018-06-30T22:16:05.403Z,13.05
2018-06-30T22:18:33.204Z,13.20
2018-06-30T22:21:00.592Z,9.48
2018-06-30T22:23:28.050Z,11.55
2018-06-30T22:25:55.460Z,11.50
2018-06-30T22:28:22.937Z,12.23
2018-06-30T22:30:50.471Z,8.38
2018-06-30T22:33:17.971Z,8.70
2018-06-30T22:35:45.519Z,13.60
2018-06-30T22:38:13.014Z,11.77
2018-06-30T22:40:40.463Z,14.43
2018-06-30T22:43:07.944Z,10.10
2018-06-30T22:45:35.405Z,12.85
2018-06-30T22:48:03.110Z,11.18
2018-06-30T22:50:30.744Z,12.40
2018-06-30T22:52:59.194Z,12.52
2018-06-30T22:55:26.630Z,12.55
2018-06-30T22:57:54.031Z,12.95
2018-06-30T23:00:30.212Z,13.70
2018-06-30T23:02:57.795Z,13.27
2018-06-30T23:05:25.296Z,28.50
2018-06-30T23:07:52.751Z,18.08
2018-06-30T23:10:20.218Z,10.40
2018-06-30T23:12:47.652Z,13.75
2018-06-30T23:15:15.132Z,10.07
2018-06-30T23:17:42.627Z,13.60
2018-06-30T23:20:10.074Z,11.15
2018-06-30T23:22:37.509Z,13.60
2018-06-30T23:25:04.963Z,11.95
2018-06-30T23:27:32.418Z,12.73
2018-06-30T23:29:59.876Z,13.48
2018-06-30T23:32:27.301Z,9.93
2018-06-30T23:34:54.775Z,15.32
2018-06-30T23:37:22.329Z,12.10
2018-06-30T23:39:49.749Z,13.13
2018-06-30T23:42:17.169Z,12.43
2018-06-30T23:44:44.673Z,15.63
2018-06-30T23:47:12.113Z,13.60
2018-06-30T23:49:39.584Z,13.80
2018-06-30T23:52:07.121Z,13.57
2018-06-30T23:54:34.528Z,20.67
2018-06-30T23:57:02.772Z,13.13
2018-06-30T23:59:30.250Z,12.88
